createdAt,value
2023-04-16T00:00:37.301Z,8.20
2023-04-16T00:03:08.897Z,8.10
2023-04-16T00:05:40.987Z,8.20
2023-04-16T00:08:09.668Z,8.20
2023-04-16T00:10:38.664Z,8.20
2023-04-16T00:13:08.894Z,8.20
2023-04-16T00:15:37.614Z,8.20
2023-04-16T00:18:06.327Z,8.20
2023-04-16T00:20:37.548Z,8.20
2023-04-16T00:23:06.383Z,8.20
2023-04-16T00:25:35.092Z,8.20
2023-04-16T00:28:06.233Z,8.20
2023-04-16T00:30:38.040Z,8.20
2023-04-16T00:33:06.774Z,8.20
2023-04-16T00:35:35.639Z,8.20
2023-04-16T00:38:06.862Z,8.30
2023-04-16T00:40:35.834Z,8.30
2023-04-16T00:43:04.660Z,8.30
2023-04-16T00:45:33.433Z,8.30
2023-04-16T00:48:04.281Z,8.30
2023-04-16T00:50:33.425Z,8.30
2023-04-16T00:53:04.089Z,8.30
2023-04-16T00:55:32.807Z,8.30
2023-04-16T00:58:01.474Z,8.30
2023-04-16T01:00:30.147Z,8.30
2023-04-16T01:03:00.213Z,8.30
2023-04-16T01:05:31.262Z,8.30
2023-04-16T01:08:01.274Z,8.30
2023-04-16T01:10:30.012Z,8.30
2023-04-16T01:12:58.698Z,8.30
2023-04-16T01:15:29.695Z,8.30
2023-04-16T01:17:58.501Z,8.30
2023-04-16T01:20:27.311Z,8.30
2023-04-16T01:23:07.911Z,8.30
2023-04-16T01:25:36.557Z,8.30
2023-04-16T01:28:05.518Z,8.30
2023-04-16T01:30:34.183Z,8.30
2023-04-16T01:33:05.885Z,8.30
2023-04-16T01:35:43.426Z,8.30
2023-04-16T01:38:16.834Z,8.30
2023-04-16T01:40:45.490Z,8.30
2023-04-16T01:43:14.298Z,8.30
2023-04-16T01:45:44.417Z,8.30
2023-04-16T01:48:13.304Z,8.40
2023-04-16T01:50:42.512Z,8.30
2023-04-16T01:53:11.169Z,8.30
2023-04-16T01:55:41.301Z,8.30
2023-04-16T01:58:11.151Z,8.30
2023-04-16T02:00:40.536Z,8.30
2023-04-16T02:03:09.419Z,8.30
2023-04-16T02:05:39.454Z,8.30
2023-04-16T02:08:08.084Z,8.30
2023-04-16T02:10:39.716Z,8.30
2023-04-16T02:13:09.916Z,8.30
2023-04-16T02:15:38.590Z,8.30
2023-04-16T02:18:07.288Z,8.30
2023-04-16T02:20:36.434Z,8.30
2023-04-16T02:23:05.064Z,8.30
2023-04-16T02:25:34.107Z,8.30
2023-04-16T02:28:02.787Z,8.30
2023-04-16T02:30:34.972Z,8.30
2023-04-16T02:33:07.409Z,8.30
2023-04-16T02:35:36.531Z,8.30
2023-04-16T02:38:06.273Z,8.30
2023-04-16T02:40:36.776Z,8.30
2023-04-16T02:43:05.421Z,8.30
2023-04-16T02:45:35.495Z,8.40
2023-04-16T02:48:04.221Z,8.30
2023-04-16T02:50:33.911Z,8.40
2023-04-16T02:53:04.409Z,8.40
2023-04-16T02:55:32.999Z,8.40
2023-04-16T02:58:01.955Z,8.40
2023-04-16T03:00:30.863Z,8.40
2023-04-16T03:03:00.994Z,8.40
2023-04-16T03:05:29.610Z,8.40
2023-04-16T03:07:58.315Z,8.40
2023-04-16T03:10:26.991Z,8.40
2023-04-16T03:12:55.663Z,8.40
2023-04-16T03:15:25.349Z,8.40
2023-04-16T03:17:54.137Z,8.40
2023-04-16T03:20:24.185Z,8.40
2023-04-16T03:22:57.291Z,8.40
2023-04-16T03:25:25.940Z,8.40
2023-04-16T03:27:54.598Z,8.40
2023-04-16T03:30:23.284Z,8.40
2023-04-16T03:32:52.194Z,8.40
2023-04-16T03:35:21.165Z,8.40
2023-04-16T03:37:51.872Z,8.40
2023-04-16T03:40:20.831Z,8.40
2023-04-16T03:42:49.485Z,8.40
2023-04-16T03:45:18.305Z,8.40
2023-04-16T03:47:48.852Z,8.40
2023-04-16T03:50:17.693Z,8.40
2023-04-16T03:52:47.055Z,8.40
2023-04-16T03:55:17.472Z,8.40
2023-04-16T03:57:46.202Z,8.40
2023-04-16T04:00:15.495Z,8.40
2023-04-16T04:02:48.186Z,8.40
2023-04-16T04:05:17.989Z,8.40
2023-04-16T04:07:48.333Z,8.40
2023-04-16T04:10:20.205Z,8.40
2023-04-16T04:12:54.086Z,8.40
2023-04-16T04:15:26.398Z,8.40
2023-04-16T04:18:06.177Z,8.40
2023-04-16T04:20:43.288Z,8.40
2023-04-16T04:23:19.343Z,8.50
2023-04-16T04:25:50.986Z,8.40
2023-04-16T04:28:22.746Z,8.40
2023-04-16T04:30:51.372Z,8.40
2023-04-16T04:33:20.527Z,8.40
2023-04-16T04:35:49.222Z,8.40
2023-04-16T04:38:19.887Z,8.40
2023-04-16T04:40:52.857Z,8.40
2023-04-16T04:43:21.902Z,8.40
2023-04-16T04:45:51.012Z,8.40
2023-04-16T04:48:21.693Z,8.40
2023-04-16T04:50:50.617Z,8.30
2023-04-16T04:53:24.026Z,8.30
2023-04-16T04:55:57.574Z,8.40
2023-04-16T04:58:34.121Z,8.40
2023-04-16T05:01:06.091Z,8.30
2023-04-16T05:03:34.978Z,8.30
2023-04-16T05:06:03.645Z,8.30
2023-04-16T05:08:32.260Z,8.40
2023-04-16T05:11:02.306Z,8.30
2023-04-16T05:13:30.862Z,8.30
2023-04-16T05:16:00.772Z,8.30
2023-04-16T05:18:29.474Z,8.40
2023-04-16T05:21:00.452Z,8.40
2023-04-16T05:23:36.864Z,8.40
2023-04-16T05:26:15.545Z,8.40
2023-04-16T05:28:44.314Z,8.50
2023-04-16T05:31:13.109Z,8.50
2023-04-16T05:33:41.809Z,8.50
2023-04-16T05:36:10.626Z,8.50
2023-04-16T05:38:42.079Z,8.50
2023-04-16T05:41:12.211Z,8.50
2023-04-16T05:43:43.668Z,8.50
2023-04-16T05:46:15.422Z,8.50
2023-04-16T05:48:44.195Z,8.60
2023-04-16T05:51:16.392Z,8.60
2023-04-16T05:53:47.325Z,8.60
2023-04-16T05:56:22.024Z,8.60
2023-04-16T05:58:51.484Z,8.60
2023-04-16T06:01:25.696Z,8.60
2023-04-16T06:04:00.310Z,8.60
2023-04-16T06:06:37.684Z,8.70
2023-04-16T06:09:14.041Z,8.70
2023-04-16T06:11:44.329Z,8.70
2023-04-16T06:14:13.165Z,8.70
2023-04-16T06:16:42.057Z,8.80
2023-04-16T06:19:11.054Z,8.80
2023-04-16T06:21:40.103Z,8.80
2023-04-16T06:24:09.224Z,8.80
2023-04-16T06:26:38.081Z,8.70
2023-04-16T06:29:08.501Z,8.70
2023-04-16T06:31:40.260Z,8.60
2023-04-16T06:34:10.435Z,8.60
2023-04-16T06:36:39.021Z,8.60
2023-04-16T06:39:10.082Z,8.60
2023-04-16T06:41:38.853Z,8.60
2023-04-16T06:44:09.079Z,8.60
2023-04-16T06:46:39.473Z,8.60
2023-04-16T06:49:08.610Z,8.60
2023-04-16T06:51:39.797Z,8.60
2023-04-16T06:54:08.429Z,8.70
2023-04-16T06:56:39.952Z,8.70
2023-04-16T06:59:13.203Z,8.80
2023-04-16T07:01:42.678Z,8.80
2023-04-16T07:04:13.258Z,8.80
2023-04-16T07:06:44.456Z,8.90
2023-04-16T07:09:21.538Z,8.90
2023-04-16T07:11:50.350Z,8.90
2023-04-16T07:14:20.740Z,8.90
2023-04-16T07:16:49.596Z,9.00
2023-04-16T07:19:20.161Z,9.10
2023-04-16T07:21:48.956Z,9.10
2023-04-16T07:24:20.029Z,9.10
2023-04-16T07:26:52.358Z,9.20
2023-04-16T07:29:25.086Z,9.20
2023-04-16T07:31:54.004Z,9.20
2023-04-16T07:34:23.311Z,9.20
2023-04-16T07:37:01.788Z,9.30
2023-04-16T07:39:31.758Z,9.30
2023-04-16T07:42:03.628Z,9.40
2023-04-16T07:44:36.823Z,9.40
2023-04-16T07:47:05.951Z,9.40
2023-04-16T07:49:35.916Z,9.40
2023-04-16T07:52:04.683Z,9.50
2023-04-16T07:54:33.538Z,9.40
2023-04-16T07:57:07.255Z,9.40
2023-04-16T07:59:42.396Z,9.40
2023-04-16T08:02:20.725Z,9.50
2023-04-16T08:04:49.728Z,9.50
2023-04-16T08:07:22.212Z,9.60
2023-04-16T08:09:52.678Z,9.60
2023-04-16T08:12:22.255Z,9.60
2023-04-16T08:14:58.745Z,9.60
2023-04-16T08:17:28.589Z,9.70
2023-04-16T08:19:57.421Z,9.70
2023-04-16T08:22:26.420Z,9.70
2023-04-16T08:24:58.421Z,9.70
2023-04-16T08:27:27.146Z,9.80
2023-04-16T08:29:57.215Z,9.80
2023-04-16T08:32:26.000Z,9.90
2023-04-16T08:34:54.672Z,10.00
2023-04-16T08:37:23.279Z,10.10
2023-04-16T08:39:51.916Z,10.20
2023-04-16T08:42:24.904Z,10.30
2023-04-16T08:45:03.093Z,10.40
2023-04-16T08:47:35.576Z,10.50
2023-04-16T08:50:06.105Z,10.60
2023-04-16T08:52:38.967Z,10.80
2023-04-16T08:55:13.557Z,10.90
2023-04-16T08:57:48.982Z,11.10
2023-04-16T09:00:19.973Z,11.20
2023-04-16T09:02:50.318Z,11.10
2023-04-16T09:05:21.465Z,11.20
2023-04-16T09:07:50.311Z,11.30
2023-04-16T09:10:19.247Z,11.30
2023-04-16T09:12:47.899Z,11.40
2023-04-16T09:15:16.475Z,11.40
2023-04-16T09:17:46.636Z,11.50
2023-04-16T09:20:16.650Z,11.60
2023-04-16T09:22:45.709Z,11.80
2023-04-16T09:25:14.718Z,11.90
2023-04-16T09:27:43.743Z,11.90
2023-04-16T09:30:23.177Z,12.00
2023-04-16T09:32:54.478Z,12.10
2023-04-16T09:35:23.175Z,12.30
2023-04-16T09:37:58.702Z,12.50
2023-04-16T09:40:30.591Z,12.60
2023-04-16T09:43:00.934Z,12.80
2023-04-16T09:45:33.966Z,13.00
2023-04-16T09:48:07.813Z,13.10
2023-04-16T09:50:36.495Z,13.30
2023-04-16T09:53:06.288Z,13.20
2023-04-16T09:55:35.265Z,13.10
2023-04-16T09:58:03.881Z,13.20
2023-04-16T10:00:34.615Z,13.40
2023-04-16T10:03:08.197Z,13.60
2023-04-16T10:05:37.002Z,13.70
2023-04-16T10:08:13.305Z,13.60
2023-04-16T10:10:42.355Z,13.60
2023-04-16T10:13:12.756Z,13.60
2023-04-16T10:15:41.840Z,13.70
2023-04-16T10:18:12.136Z,13.50
2023-04-16T10:20:41.008Z,13.50
2023-04-16T10:23:09.826Z,13.50
2023-04-16T10:25:39.965Z,13.40
2023-04-16T10:28:10.436Z,13.50
2023-04-16T10:30:39.626Z,13.50
2023-04-16T10:33:09.465Z,13.60
2023-04-16T10:35:42.153Z,13.60
2023-04-16T10:38:24.424Z,13.70
2023-04-16T10:41:00.220Z,13.80
2023-04-16T10:43:30.140Z,14.10
2023-04-16T10:45:59.112Z,14.10
2023-04-16T10:48:35.568Z,14.00
2023-04-16T10:51:26.025Z,14.10
2023-04-16T10:53:55.872Z,13.90
2023-04-16T10:56:28.116Z,13.80
2023-04-16T10:58:59.373Z,13.70
2023-04-16T11:01:35.445Z,13.80
2023-04-16T11:04:28.224Z,13.70
2023-04-16T11:07:16.425Z,14.00
2023-04-16T11:10:05.098Z,14.00
2023-04-16T11:12:37.726Z,14.00
2023-04-16T11:15:08.616Z,14.20
2023-04-16T11:17:40.196Z,14.20
2023-04-16T11:20:19.542Z,14.50
2023-04-16T11:22:50.967Z,14.40
2023-04-16T11:25:23.038Z,14.50
2023-04-16T11:27:52.117Z,14.60
2023-04-16T11:30:30.404Z,14.50
2023-04-16T11:32:59.311Z,14.50
2023-04-16T11:35:28.006Z,14.50
2023-04-16T11:37:59.313Z,14.40
2023-04-16T11:40:31.718Z,14.70
2023-04-16T11:43:04.160Z,14.70
2023-04-16T11:45:32.851Z,14.80
2023-04-16T11:48:01.618Z,14.80
2023-04-16T11:50:30.483Z,15.00
2023-04-16T11:53:06.310Z,15.00
2023-04-16T11:55:44.727Z,15.20
2023-04-16T11:58:15.951Z,15.40
2023-04-16T12:00:45.785Z,15.50
2023-04-16T12:03:14.658Z,15.50
2023-04-16T12:05:43.445Z,15.50
2023-04-16T12:08:29.354Z,15.30
2023-04-16T12:10:59.651Z,15.30
2023-04-16T12:13:28.467Z,15.00
2023-04-16T12:15:57.991Z,14.80
2023-04-16T12:18:27.451Z,14.70
2023-04-16T12:20:56.159Z,14.80
2023-04-16T12:23:27.752Z,15.00
2023-04-16T12:25:59.648Z,15.00
2023-04-16T12:28:30.147Z,14.90
2023-04-16T12:30:58.926Z,14.80
2023-04-16T12:33:27.557Z,15.10
2023-04-16T12:35:56.235Z,14.90
2023-04-16T12:38:26.612Z,15.00
2023-04-16T12:40:57.151Z,15.00
2023-04-16T12:43:26.419Z,14.90
2023-04-16T12:45:55.358Z,14.80
2023-04-16T12:48:24.031Z,14.70
2023-04-16T12:50:55.303Z,14.90
2023-04-16T12:53:24.011Z,15.00
2023-04-16T12:55:54.025Z,15.00
2023-04-16T12:58:22.662Z,15.00
2023-04-16T13:00:51.314Z,14.80
2023-04-16T13:03:21.071Z,14.80
2023-04-16T13:05:50.109Z,14.80
2023-04-16T13:08:18.754Z,15.10
2023-04-16T13:10:47.400Z,15.00
2023-04-16T13:13:17.509Z,14.70
2023-04-16T13:15:46.155Z,14.60
2023-04-16T13:18:14.886Z,14.70
2023-04-16T13:20:43.886Z,14.50
2023-04-16T13:23:12.547Z,14.40
2023-04-16T13:25:41.116Z,14.10
2023-04-16T13:28:09.721Z,14.20
2023-04-16T13:30:39.883Z,14.40
2023-04-16T13:33:09.165Z,14.30
2023-04-16T13:35:37.861Z,14.30
2023-04-16T13:38:06.615Z,14.50
2023-04-16T13:40:35.307Z,14.60
2023-04-16T13:43:05.024Z,14.50
2023-04-16T13:45:35.245Z,14.70
2023-04-16T13:48:05.653Z,14.70
2023-04-16T13:50:35.200Z,15.00
2023-04-16T13:53:03.845Z,14.80
2023-04-16T13:55:32.882Z,14.50
2023-04-16T13:58:01.796Z,14.40
2023-04-16T14:00:30.401Z,14.40
2023-04-16T14:02:59.200Z,14.00
2023-04-16T14:05:29.232Z,13.90
2023-04-16T14:07:57.831Z,13.90
2023-04-16T14:10:26.441Z,14.00
2023-04-16T14:12:55.169Z,14.30
2023-04-16T14:15:26.410Z,14.40
2023-04-16T14:17:55.073Z,14.20
2023-04-16T14:20:23.853Z,13.90
2023-04-16T14:22:53.896Z,13.70
2023-04-16T14:25:22.507Z,13.60
2023-04-16T14:27:51.409Z,13.70
2023-04-16T14:30:20.261Z,13.70
2023-04-16T14:32:49.033Z,13.60
2023-04-16T14:35:18.007Z,13.70
2023-04-16T14:37:46.886Z,13.70
2023-04-16T14:40:17.030Z,13.70
2023-04-16T14:42:45.621Z,13.70
2023-04-16T14:45:14.434Z,13.60
2023-04-16T14:47:47.036Z,13.70
2023-04-16T14:50:16.150Z,13.80
2023-04-16T14:52:44.871Z,13.80
2023-04-16T14:55:13.552Z,13.90
2023-04-16T14:57:43.518Z,13.80
2023-04-16T15:00:13.609Z,13.50
2023-04-16T15:02:42.476Z,13.40
2023-04-16T15:05:11.534Z,13.40
2023-04-16T15:07:40.454Z,13.60
2023-04-16T15:10:10.806Z,13.70
2023-04-16T15:12:39.466Z,13.90
2023-04-16T15:15:11.144Z,14.10
2023-04-16T15:17:39.850Z,14.00
2023-04-16T15:20:10.678Z,14.10
2023-04-16T15:22:39.453Z,14.40
2023-04-16T15:25:08.846Z,14.30
2023-04-16T15:27:37.624Z,14.20
2023-04-16T15:30:07.230Z,14.10
2023-04-16T15:32:37.364Z,13.90
2023-04-16T15:35:06.531Z,13.70
2023-04-16T15:37:35.167Z,13.50
2023-04-16T15:40:05.580Z,13.40
2023-04-16T15:42:34.327Z,13.50
2023-04-16T15:45:03.047Z,13.60
2023-04-16T15:47:31.705Z,13.50
2023-04-16T15:50:01.691Z,13.50
2023-04-16T15:52:30.721Z,13.40
2023-04-16T15:55:00.735Z,13.30
2023-04-16T15:57:30.674Z,13.20
2023-04-16T16:00:06.866Z,13.30
2023-04-16T16:02:36.500Z,13.20
2023-04-16T16:05:07.560Z,13.40
2023-04-16T16:07:36.348Z,13.30
2023-04-16T16:10:06.049Z,13.40
2023-04-16T16:12:34.779Z,13.40
2023-04-16T16:15:03.469Z,13.20
2023-04-16T16:17:32.118Z,13.00
2023-04-16T16:20:01.212Z,12.90
2023-04-16T16:22:31.234Z,12.80
2023-04-16T16:25:00.423Z,12.80
2023-04-16T16:27:28.967Z,12.80
2023-04-16T16:29:57.696Z,12.70
2023-04-16T16:32:26.375Z,12.60
2023-04-16T16:34:55.144Z,12.50
2023-04-16T16:37:23.723Z,12.50
2023-04-16T16:39:53.818Z,12.50
2023-04-16T16:42:22.454Z,12.50
2023-04-16T16:44:51.154Z,12.40
2023-04-16T16:47:19.939Z,12.40
2023-04-16T16:49:49.076Z,12.50
2023-04-16T16:52:17.959Z,12.40
2023-04-16T16:54:46.613Z,12.40
2023-04-16T16:57:16.735Z,12.40
2023-04-16T16:59:45.552Z,12.60
2023-04-16T17:02:16.337Z,12.70
2023-04-16T17:04:45.679Z,12.70
2023-04-16T17:07:14.626Z,12.50
2023-04-16T17:09:43.265Z,12.30
2023-04-16T17:12:11.943Z,12.30
2023-04-16T17:14:41.975Z,12.30
2023-04-16T17:17:10.691Z,12.30
2023-04-16T17:19:39.356Z,12.30
2023-04-16T17:22:08.582Z,12.10
2023-04-16T17:24:37.243Z,12.20
2023-04-16T17:27:05.913Z,12.20
2023-04-16T17:29:34.545Z,12.10
2023-04-16T17:32:04.811Z,12.10
2023-04-16T17:34:33.454Z,11.90
2023-04-16T17:37:02.202Z,11.90
2023-04-16T17:39:31.175Z,11.70
2023-04-16T17:42:02.989Z,11.70
2023-04-16T17:44:31.650Z,11.70
2023-04-16T17:47:00.443Z,11.70
2023-04-16T17:49:30.512Z,11.60
2023-04-16T17:51:59.108Z,11.50
2023-04-16T17:54:27.769Z,11.50
2023-04-16T17:56:57.536Z,11.40
2023-04-16T17:59:26.313Z,11.40
2023-04-16T18:01:55.152Z,11.40
2023-04-16T18:04:24.013Z,11.40
2023-04-16T18:06:54.081Z,11.40
2023-04-16T18:09:22.857Z,11.40
2023-04-16T18:11:51.541Z,11.30
2023-04-16T18:14:21.528Z,11.20
2023-04-16T18:16:50.474Z,11.10
2023-04-16T18:19:19.092Z,11.10
2023-04-16T18:21:47.944Z,11.10
2023-04-16T18:24:17.965Z,11.00
2023-04-16T18:26:47.199Z,11.00
2023-04-16T18:29:17.834Z,10.90
2023-04-16T18:31:47.449Z,10.90
2023-04-16T18:34:16.310Z,10.90
2023-04-16T18:36:44.961Z,10.80
2023-04-16T18:39:13.592Z,10.80
2023-04-16T18:41:43.768Z,10.80
2023-04-16T18:44:12.659Z,10.80
2023-04-16T18:46:41.309Z,10.80
2023-04-16T18:49:10.325Z,10.80
2023-04-16T18:51:39.314Z,10.70
2023-04-16T18:54:09.811Z,10.70
2023-04-16T18:56:38.430Z,10.70
2023-04-16T18:59:08.643Z,10.70
2023-04-16T19:01:37.366Z,10.70
2023-04-16T19:04:07.494Z,10.70
2023-04-16T19:06:36.345Z,10.70
2023-04-16T19:09:05.052Z,10.60
2023-04-16T19:11:38.059Z,10.50
2023-04-16T19:14:14.594Z,10.50
2023-04-16T19:16:54.596Z,10.50
2023-04-16T19:19:30.594Z,10.50
2023-04-16T19:22:12.808Z,10.50
2023-04-16T19:24:58.420Z,10.50
2023-04-16T19:27:33.530Z,10.40
2023-04-16T19:30:07.073Z,10.30
2023-04-16T19:32:46.901Z,10.30
2023-04-16T19:35:27.026Z,10.30
2023-04-16T19:38:01.599Z,10.30
2023-04-16T19:40:33.629Z,10.30
2023-04-16T19:43:07.004Z,10.30
2023-04-16T19:45:50.554Z,10.20
2023-04-16T19:48:30.504Z,10.20
2023-04-16T19:51:05.563Z,10.30
2023-04-16T19:53:37.370Z,10.30
2023-04-16T19:56:16.184Z,10.30
2023-04-16T19:58:47.985Z,10.20
2023-04-16T20:01:27.766Z,10.10
2023-04-16T20:03:57.651Z,10.20
2023-04-16T20:06:40.146Z,10.20
2023-04-16T20:09:32.020Z,10.10
2023-04-16T20:12:08.821Z,10.10
2023-04-16T20:15:07.791Z,10.10
2023-04-16T20:17:41.171Z,10.10
2023-04-16T20:20:11.336Z,10.00
2023-04-16T20:22:40.953Z,10.00
2023-04-16T20:25:10.731Z,9.90
2023-04-16T20:27:45.439Z,9.90
2023-04-16T20:30:15.250Z,9.90
2023-04-16T20:32:48.932Z,9.90
2023-04-16T20:35:20.219Z,9.80
2023-04-16T20:37:51.278Z,9.80
2023-04-16T20:40:24.096Z,9.80
2023-04-16T20:42:53.280Z,9.70
2023-04-16T20:45:22.116Z,9.70
2023-04-16T20:47:52.309Z,9.70
2023-04-16T20:50:21.148Z,9.60
2023-04-16T20:52:50.183Z,9.60
2023-04-16T20:55:21.666Z,9.60
2023-04-16T20:57:59.652Z,9.60
2023-04-16T21:00:30.521Z,9.50
2023-04-16T21:03:01.037Z,9.50
2023-04-16T21:05:34.098Z,9.50
2023-04-16T21:08:04.469Z,9.50
2023-04-16T21:10:33.270Z,9.40
2023-04-16T21:13:02.473Z,9.40
2023-04-16T21:15:32.899Z,9.40
2023-04-16T21:18:03.475Z,9.40
2023-04-16T21:20:36.947Z,9.40
2023-04-16T21:23:09.202Z,9.40
2023-04-16T21:25:40.002Z,9.30
2023-04-16T21:28:08.651Z,9.30
2023-04-16T21:30:38.324Z,9.30
2023-04-16T21:33:16.146Z,9.30
2023-04-16T21:35:56.133Z,9.30
2023-04-16T21:38:30.691Z,9.40
2023-04-16T21:41:13.513Z,9.30
2023-04-16T21:43:44.513Z,9.30
2023-04-16T21:46:15.542Z,9.20
2023-04-16T21:48:54.522Z,9.30
2023-04-16T21:51:34.761Z,9.30
2023-04-16T21:54:23.683Z,9.20
2023-04-16T21:59:43.222Z,9.20
2023-04-16T22:02:32.708Z,9.10
2023-04-16T22:05:05.800Z,9.10
2023-04-16T22:07:48.414Z,9.10
2023-04-16T22:10:30.573Z,9.10
2023-04-16T22:13:14.543Z,9.10
2023-04-16T22:16:10.135Z,9.10
2023-04-16T22:18:50.563Z,9.10
2023-04-16T22:21:24.703Z,9.10
2023-04-16T22:24:04.222Z,9.10
2023-04-16T22:26:39.596Z,9.00
2023-04-16T22:29:28.647Z,9.00
2023-04-16T22:32:05.002Z,9.00
2023-04-16T22:34:45.073Z,9.00
2023-04-16T22:37:32.857Z,8.90
2023-04-16T22:40:21.837Z,8.90
2023-04-16T22:43:01.950Z,8.80
2023-04-16T22:45:38.903Z,8.80
2023-04-16T22:48:16.485Z,8.80
2023-04-16T22:50:54.194Z,8.80
2023-04-16T22:53:34.543Z,8.70
2023-04-16T22:56:05.454Z,8.70
2023-04-16T22:58:38.527Z,8.70
2023-04-16T23:01:10.480Z,8.70
2023-04-16T23:03:39.171Z,8.70
2023-04-16T23:06:08.319Z,8.60
2023-04-16T23:08:38.552Z,8.60
2023-04-16T23:11:09.849Z,8.60
2023-04-16T23:13:38.560Z,8.60
2023-04-16T23:16:08.313Z,8.60
2023-04-16T23:18:37.877Z,8.60
2023-04-16T23:21:06.880Z,8.60
2023-04-16T23:23:37.823Z,8.60
2023-04-16T23:26:18.698Z,8.60
2023-04-16T23:28:48.019Z,8.60
2023-04-16T23:31:16.856Z,8.50
2023-04-16T23:33:45.555Z,8.60
2023-04-16T23:36:19.279Z,8.60
2023-04-16T23:38:48.882Z,8.50
2023-04-16T23:41:29.782Z,8.50
2023-04-16T23:44:04.429Z,8.50
2023-04-16T23:46:35.775Z,8.50
2023-04-16T23:49:10.004Z,8.50
2023-04-16T23:51:42.062Z,8.60
2023-04-16T23:54:19.705Z,8.50
2023-04-16T23:56:50.000Z,8.60
2023-04-16T23:59:18.927Z,8.50
